Ek-star — LAMT5 — position and weather

sailwx.info

Track history (hours):
 
Tides and Currents Weather Stations Pressure Air Temp Water Temp Dewpoint Dewpoint Depression Visibility Wind Speed Wind Dir Waves Ship Positions

Ek-star

Last reported at 2015-Aug-03 10:19 UTC. Time now 2015-Aug-04 03:21 UTC.
Position N 59°50' E 025°26'.

Length 135 m; draft 8.3 m.

Type: Ship (hazmat cat A). MMSI: 257433000.

Date/timePositionNaut miles runAvg speedWind from/ knotsBaromVisibWave heightAir tempDewpointWater temp
2015-Aug-03 10:19N 59°50' E 025°26'1512.0
2015-Aug-03 09:05N 59°56' E 025°53'712.6
2015-Aug-03 08:33N 59°58' E 026°05'1312.7
2015-Aug-03 07:33N 60°01' E 026°30'9211.5
2015-Aug-02 23:32N 60°01' E 029°34'1212.0
2015-Aug-02 22:33N 59°56' E 029°56'9 8.6
2015-Aug-02 21:29N 59°52' E 030°13'0 0.4
2015-Aug-02 20:32N 59°52' E 030°13'0 0.0
2015-Aug-02 19:32N 59°52' E 030°13'0 0.0
2015-Aug-02 18:32N 59°52' E 030°13'0 0.0
2015-Aug-02 17:32N 59°52' E 030°13'0 0.0
2015-Aug-02 16:32N 59°52' E 030°13'0 0.0
2015-Aug-02 15:32N 59°52' E 030°13'0 0.0
2015-Aug-02 14:32N 59°52' E 030°13'0 0.0
2015-Aug-02 13:32N 59°52' E 030°13'0 0.0
2015-Aug-02 12:32N 59°52' E 030°13'0 0.0
2015-Aug-02 11:32N 59°52' E 030°13'0 0.0
2015-Aug-02 10:32N 59°52' E 030°13'0 0.0
2015-Aug-02 09:32N 59°52' E 030°13'0 0.0
2015-Aug-02 08:32N 59°52' E 030°13'0 0.0
2015-Aug-02 07:32N 59°52' E 030°13'0 0.0
2015-Aug-02 06:32N 59°52' E 030°13'0 0.0
2015-Aug-02 05:32N 59°52' E 030°13'0 0.0
2015-Aug-02 04:32N 59°52' E 030°13'0 0.0
2015-Aug-02 03:32N 59°52' E 030°13'0 0.0
2015-Aug-02 02:32N 59°52' E 030°13'0 0.0
2015-Aug-02 01:32N 59°52' E 030°13'0 0.0
2015-Aug-02 00:32N 59°52' E 030°13'0 0.0
2015-Aug-01 23:32N 59°52' E 030°13'0 0.0
2015-Aug-01 22:32N 59°52' E 030°13'0 0.0
2015-Aug-01 21:32N 59°52' E 030°13'0 0.0
2015-Aug-01 20:32N 59°52' E 030°13'0 0.0
2015-Aug-01 19:32N 59°52' E 030°13'0 0.0
2015-Aug-01 18:17N 59°52' E 030°13'0 0.0
2015-Aug-01 17:32N 59°52' E 030°13'0 0.0
2015-Aug-01 16:29N 59°52' E 030°13'0 0.0
2015-Aug-01 15:32N 59°52' E 030°13'2 1.5
2015-Aug-01 14:32N 59°53' E 030°11'9 8.8
2015-Aug-01 13:33N 59°56' E 029°55'10 9.7
2015-Aug-01 12:33N 60°00' E 029°37'78 3.2
2015-Jul-31 12:15N 59°58' E 027°00'913.6
2015-Jul-31 11:33N 59°59' E 026°42'1313.3
2015-Jul-31 10:33N 59°55' E 026°17'9 0.3
2015-Jul-30 08:25N 60°01' E 026°29'1310.5
2015-Jul-30 07:12N 59°58' E 026°54'812.7
2015-Jul-30 06:33N 59°59' E 026°38'16 0.6
2015-Jul-29 03:06N 59°43' E 026°43'5013.3
2015-Jul-28 23:19N 59°45' E 025°03'1013.5
2015-Jul-28 22:33N 59°45' E 024°43'1413.6
2015-Jul-28 21:33N 59°42' E 024°16'1313.3
2015-Jul-28 20:33N 59°38' E 023°51'1413.5
2015-Jul-28 19:33N 59°33' E 023°26'1313.4
2015-Jul-28 18:33N 59°29' E 023°01'1313.1
2015-Jul-28 17:33N 59°25' E 022°36'1313.2
2015-Jul-28 16:33N 59°17' E 022°15'1313.4
2015-Jul-28 15:33N 59°09' E 021°54'28413.3
2015-Jul-27 18:09N 55°45' E 015°47'813.0
2015-Jul-27 17:33N 55°41' E 015°35'1313.1
2015-Jul-27 16:33N 55°35' E 015°15'1313.3
2015-Jul-27 15:33N 55°28' E 014°54'1312.9
2015-Jul-27 14:33N 55°21' E 014°36'1313.2
2015-Jul-27 13:33N 55°11' E 014°21'1313.2
2015-Jul-27 12:33N 55°01' E 014°05'1313.3
2015-Jul-27 11:33N 54°57' E 013°43'5213.1
2015-Jul-27 07:33N 54°35' E 012°20'1313.2
2015-Jul-27 06:33N 54°24' E 012°08'1313.3
2015-Jul-27 05:33N 54°26' E 011°45'1313.4
2015-Jul-27 04:33N 54°31' E 011°24'1313.2
2015-Jul-27 03:33N 54°37' E 011°04'1211.5
2015-Jul-27 02:33N 54°45' E 010°50'30 1.1
2015-Jul-25 22:26N 55°14' E 011°06'1213.8
2015-Jul-25 21:33N 55°02' E 011°02'1313.2
2015-Jul-25 20:33N 54°50' E 010°52'1211.7
2015-Jul-25 19:33N 54°39' E 011°00'1413.9
2015-Jul-25 18:33N 54°33' E 011°21'1313.4
2015-Jul-25 17:33N 54°27' E 011°42'1312.8
2015-Jul-25 16:33N 54°26' E 012°04'1311.4
2015-Jul-25 15:23N 54°37' E 012°17'5013.1
2015-Jul-25 11:33N 54°58' E 013°36'1313.1
2015-Jul-25 10:33N 55°03' E 013°57'1312.7
2015-Jul-25 09:33N 55°11' E 014°14'1313.1
2015-Jul-25 08:34N 55°21' E 014°28'1312.9
2015-Jul-25 07:33N 55°30' E 014°45'1313.3
2015-Jul-25 06:33N 55°36' E 015°06'2813.2
2015-Jul-25 04:27N 55°50' E 015°48'1213.1
2015-Jul-25 03:33N 55°55' E 016°07'1413.3
2015-Jul-25 02:31N 56°02' E 016°28'2913.3
2015-Jul-25 00:19N 56°20' E 017°11'  
Track history (hours):
 
Tides and Currents Weather Stations Pressure Air Temp Water Temp Dewpoint Dewpoint Depression Visibility Wind Speed Wind Dir Waves Ship Positions

Ek-star

Last reported at 2015-Aug-03 10:19 UTC. Time now 2015-Aug-04 03:21 UTC.
Position N 59°50' E 025°26'.

Length 135 m; draft 8.3 m.

Type: Ship (hazmat cat A). MMSI: 257433000.

Date/timePositionNaut miles runAvg speedWind from/ knotsBaromVisibWave heightAir tempDewpointWater temp
2015-Aug-03 10:19N 59°50' E 025°26'1512.0
2015-Aug-03 09:05N 59°56' E 025°53'712.6
2015-Aug-03 08:33N 59°58' E 026°05'1312.7
2015-Aug-03 07:33N 60°01' E 026°30'9211.5
2015-Aug-02 23:32N 60°01' E 029°34'1212.0
2015-Aug-02 22:33N 59°56' E 029°56'9 8.6
2015-Aug-02 21:29N 59°52' E 030°13'0 0.4
2015-Aug-02 20:32N 59°52' E 030°13'0 0.0
2015-Aug-02 19:32N 59°52' E 030°13'0 0.0
2015-Aug-02 18:32N 59°52' E 030°13'0 0.0
2015-Aug-02 17:32N 59°52' E 030°13'0 0.0
2015-Aug-02 16:32N 59°52' E 030°13'0 0.0
2015-Aug-02 15:32N 59°52' E 030°13'0 0.0
2015-Aug-02 14:32N 59°52' E 030°13'0 0.0
2015-Aug-02 13:32N 59°52' E 030°13'0 0.0
2015-Aug-02 12:32N 59°52' E 030°13'0 0.0
2015-Aug-02 11:32N 59°52' E 030°13'0 0.0
2015-Aug-02 10:32N 59°52' E 030°13'0 0.0
2015-Aug-02 09:32N 59°52' E 030°13'0 0.0
2015-Aug-02 08:32N 59°52' E 030°13'0 0.0
2015-Aug-02 07:32N 59°52' E 030°13'0 0.0
2015-Aug-02 06:32N 59°52' E 030°13'0 0.0
2015-Aug-02 05:32N 59°52' E 030°13'0 0.0
2015-Aug-02 04:32N 59°52' E 030°13'0 0.0
2015-Aug-02 03:32N 59°52' E 030°13'0 0.0
2015-Aug-02 02:32N 59°52' E 030°13'0 0.0
2015-Aug-02 01:32N 59°52' E 030°13'0 0.0
2015-Aug-02 00:32N 59°52' E 030°13'0 0.0
2015-Aug-01 23:32N 59°52' E 030°13'0 0.0
2015-Aug-01 22:32N 59°52' E 030°13'0 0.0
2015-Aug-01 21:32N 59°52' E 030°13'0 0.0
2015-Aug-01 20:32N 59°52' E 030°13'0 0.0
2015-Aug-01 19:32N 59°52' E 030°13'0 0.0
2015-Aug-01 18:17N 59°52' E 030°13'0 0.0
2015-Aug-01 17:32N 59°52' E 030°13'0 0.0
2015-Aug-01 16:29N 59°52' E 030°13'0 0.0
2015-Aug-01 15:32N 59°52' E 030°13'2 1.5
2015-Aug-01 14:32N 59°53' E 030°11'9 8.8
2015-Aug-01 13:33N 59°56' E 029°55'10 9.7
2015-Aug-01 12:33N 60°00' E 029°37'78 3.2
2015-Jul-31 12:15N 59°58' E 027°00'913.6
2015-Jul-31 11:33N 59°59' E 026°42'1313.3
2015-Jul-31 10:33N 59°55' E 026°17'9 0.3
2015-Jul-30 08:25N 60°01' E 026°29'1310.5
2015-Jul-30 07:12N 59°58' E 026°54'812.7
2015-Jul-30 06:33N 59°59' E 026°38'16 0.6
2015-Jul-29 03:06N 59°43' E 026°43'5013.3
2015-Jul-28 23:19N 59°45' E 025°03'1013.5
2015-Jul-28 22:33N 59°45' E 024°43'1413.6
2015-Jul-28 21:33N 59°42' E 024°16'1313.3
2015-Jul-28 20:33N 59°38' E 023°51'1413.5
2015-Jul-28 19:33N 59°33' E 023°26'1313.4
2015-Jul-28 18:33N 59°29' E 023°01'1313.1
2015-Jul-28 17:33N 59°25' E 022°36'1313.2
2015-Jul-28 16:33N 59°17' E 022°15'1313.4
2015-Jul-28 15:33N 59°09' E 021°54'28413.3
2015-Jul-27 18:09N 55°45' E 015°47'813.0
2015-Jul-27 17:33N 55°41' E 015°35'1313.1
2015-Jul-27 16:33N 55°35' E 015°15'1313.3
2015-Jul-27 15:33N 55°28' E 014°54'1312.9
2015-Jul-27 14:33N 55°21' E 014°36'1313.2
2015-Jul-27 13:33N 55°11' E 014°21'1313.2
2015-Jul-27 12:33N 55°01' E 014°05'1313.3
2015-Jul-27 11:33N 54°57' E 013°43'5213.1
2015-Jul-27 07:33N 54°35' E 012°20'1313.2
2015-Jul-27 06:33N 54°24' E 012°08'1313.3
2015-Jul-27 05:33N 54°26' E 011°45'1313.4
2015-Jul-27 04:33N 54°31' E 011°24'1313.2
2015-Jul-27 03:33N 54°37' E 011°04'1211.5
2015-Jul-27 02:33N 54°45' E 010°50'30 1.1
2015-Jul-25 22:26N 55°14' E 011°06'1213.8
2015-Jul-25 21:33N 55°02' E 011°02'1313.2
2015-Jul-25 20:33N 54°50' E 010°52'1211.7
2015-Jul-25 19:33N 54°39' E 011°00'1413.9
2015-Jul-25 18:33N 54°33' E 011°21'1313.4
2015-Jul-25 17:33N 54°27' E 011°42'1312.8
2015-Jul-25 16:33N 54°26' E 012°04'1311.4
2015-Jul-25 15:23N 54°37' E 012°17'5013.1
2015-Jul-25 11:33N 54°58' E 013°36'1313.1
2015-Jul-25 10:33N 55°03' E 013°57'1312.7
2015-Jul-25 09:33N 55°11' E 014°14'1313.1
2015-Jul-25 08:34N 55°21' E 014°28'1312.9
2015-Jul-25 07:33N 55°30' E 014°45'1313.3
2015-Jul-25 06:33N 55°36' E 015°06'2813.2
2015-Jul-25 04:27N 55°50' E 015°48'1213.1
2015-Jul-25 03:33N 55°55' E 016°07'1413.3
2015-Jul-25 02:31N 56°02' E 016°28'2913.3
2015-Jul-25 00:19N 56°20' E 017°11'  

Dump ship's entire track history